Time;durP1;ratioP1;P1;durP2;ratioP2;P2;SDS_P1;SDS_P2;PMS_P1;PMS_P2;Temp;Humidity;BMP_temperature;BMP_pressure;BME280_temperature;BME280_humidity;BME280_pressure;Samples;Min_cycle;Max_cycle;Signal;HPM_P1;HPM_P2
2022/01/14 00:01:27;;;;;;;4.65;2.13;;;11.10;66.60;;;;;;6132735;23;20375;-75
2022/01/14 00:03:53;;;;;;;4.95;1.88;;;11.10;66.60;;;;;;6156732;23;20022;-75
2022/01/14 00:06:19;;;;;;;5.40;1.70;;;11.20;66.70;;;;;;6132177;23;20021;-76
2022/01/14 00:08:44;;;;;;;6.93;1.77;;;11.10;66.60;;;;;;6156537;23;20040;-74
2022/01/14 00:11:15;;;;;;;3.15;1.48;;;11.10;66.60;;;;;;6158153;23;20088;-76
2022/01/14 00:16:08;;;;;;;5.03;2.20;;;11.20;66.70;;;;;;6158971;23;20026;-74
2022/01/14 00:18:33;;;;;;;5.85;2.45;;;11.20;66.70;;;;;;6157330;23;20100;-74
2022/01/14 00:21:00;;;;;;;5.18;2.40;;;11.20;66.70;;;;;;6158084;23;20411;-76
2022/01/14 00:23:31;;;;;;;4.70;1.80;;;11.10;66.60;;;;;;6158147;23;20092;-74
2022/01/14 00:34:13;;;;;;;;;;;11.20;66.70;;;;;;6157522;23;20093;-74
2022/01/14 00:36:40;;;;;;;3.78;2.00;;;11.10;66.60;;;;;;6157559;23;19959;-76
2022/01/14 00:39:08;;;;;;;5.85;2.00;;;11.10;66.70;;;;;;6158198;23;20049;-75
2022/01/14 00:41:35;;;;;;;4.35;2.00;;;11.10;66.60;;;;;;6157201;23;20014;-77
2022/01/14 00:44:03;;;;;;;3.22;1.88;;;11.10;66.60;;;;;;6156749;23;20458;-76
2022/01/14 00:46:29;;;;;;;5.10;1.92;;;11.10;66.60;;;;;;6132536;23;20017;-76
2022/01/14 00:48:56;;;;;;;4.60;2.08;;;11.20;66.70;;;;;;6158141;23;20104;-74
2022/01/14 00:51:22;;;;;;;7.30;2.53;;;11.10;66.60;;;;;;6158261;23;20277;-76
2022/01/14 00:53:48;;;;;;;4.47;2.10;;;11.10;66.60;;;;;;6158322;23;20018;-75
2022/01/14 00:59:14;;;;;;;4.97;2.13;;;11.10;66.60;;;;;;6159693;23;20096;-74
2022/01/14 01:01:45;;;;;;;5.88;2.15;;;11.20;66.70;;;;;;6160668;23;20017;-76
2022/01/14 01:04:12;;;;;;;4.57;1.90;;;11.20;66.70;;;;;;6159272;23;20030;-74
2022/01/14 01:06:39;;;;;;;6.65;2.50;;;11.10;66.60;;;;;;6160625;23;20401;-75
2022/01/14 01:09:10;;;;;;;5.78;2.03;;;11.10;66.60;;;;;;6159807;23;20077;-76
2022/01/14 01:11:39;;;;;;;5.60;2.10;;;11.20;66.70;;;;;;6159609;23;20032;-76
2022/01/14 01:14:13;;;;;;;5.82;2.30;;;11.10;66.60;;;;;;6158849;23;20033;-76
2022/01/14 01:16:39;;;;;;;;;;;11.10;66.60;;;;;;6158932;23;20026;-75
2022/01/14 01:19:05;;;;;;;3.88;2.00;;;11.10;66.60;;;;;;6158791;23;20018;-75
2022/01/14 01:21:31;;;;;;;4.60;2.28;;;11.10;67.30;;;;;;6158768;23;20025;-74
2022/01/14 01:23:57;;;;;;;6.93;2.53;;;11.10;66.70;;;;;;6160393;23;20273;-75
2022/01/14 01:26:36;;;;;;;5.18;2.47;;;11.10;66.60;;;;;;6158153;23;20419;-75
2022/01/14 01:29:54;;;;;;;4.35;2.15;;;11.10;66.70;;;;;;6158741;23;20076;-76
2022/01/14 01:31:50;;;;;;;5.43;1.75;;;11.10;66.70;;;;;;6143843;23;20100;-75
2022/01/14 01:34:21;;;;;;;4.43;1.90;;;11.20;66.70;;;;;;6133839;23;20448;-73
2022/01/14 01:36:57;;;;;;;5.18;1.98;;;11.10;66.70;;;;;;6159798;23;20033;-75
2022/01/14 01:39:28;;;;;;;5.00;2.33;;;11.10;66.70;;;;;;6160200;23;20022;-74
2022/01/14 01:41:57;;;;;;;5.50;2.40;;;11.10;66.70;;;;;;6158615;23;20029;-74
2022/01/14 01:44:24;;;;;;;3.72;2.05;;;11.10;66.70;;;;;;6158406;23;20017;-76
2022/01/14 01:46:51;;;;;;;4.05;1.90;;;11.10;66.70;;;;;;6158611;23;20053;-76
2022/01/14 01:49:21;;;;;;;4.53;2.40;;;11.20;66.70;;;;;;6158302;23;20437;-76
2022/01/14 01:51:49;;;;;;;5.75;2.25;;;11.10;66.70;;;;;;6159450;23;20022;-75
2022/01/14 01:54:16;;;;;;;4.03;1.98;;;11.20;66.70;;;;;;6159409;23;20017;-75
2022/01/14 01:56:42;;;;;;;5.55;2.22;;;11.10;66.70;;;;;;6159735;23;20029;-76
2022/01/14 01:59:09;;;;;;;3.92;2.30;;;11.20;67.30;;;;;;6158549;23;20148;-76
2022/01/14 02:01:38;;;;;;;5.18;2.33;;;11.10;66.60;;;;;;6159296;23;20017;-75
2022/01/14 02:04:04;;;;;;;7.03;2.63;;;11.20;66.70;;;;;;6159881;23;20029;-76
2022/01/14 02:06:31;;;;;;;6.03;2.28;;;11.10;66.60;;;;;;6159094;23;20412;-75
2022/01/14 02:08:57;;;;;;;6.50;2.42;;;11.20;66.70;;;;;;6158960;23;20050;-75
2022/01/14 02:11:23;;;;;;;4.20;1.92;;;11.10;66.60;;;;;;6158484;23;20025;-74
2022/01/14 02:13:50;;;;;;;4.25;2.30;;;11.20;66.70;;;;;;6159294;23;20017;-75
2022/01/14 02:16:30;;;;;;;4.57;2.25;;;11.10;66.60;;;;;;6159235;23;20151;-76
2022/01/14 02:19:15;;;;;;;3.95;2.15;;;11.10;66.60;;;;;;6159961;23;20013;-75
2022/01/14 02:24:56;;;;;;;7.32;2.42;;;11.20;66.70;;;;;;6158289;23;20025;-75
2022/01/14 02:27:20;;;;;;;4.25;2.20;;;11.20;66.70;;;;;;6159508;23;20101;-76
2022/01/14 02:29:46;;;;;;;4.65;1.98;;;11.20;66.70;;;;;;6158853;23;20021;-74
2022/01/14 02:32:12;;;;;;;4.90;1.85;;;11.20;66.70;;;;;;6157943;23;20100;-74
2022/01/14 02:34:38;;;;;;;4.03;1.92;;;11.10;66.70;;;;;;6157396;23;20017;-75
2022/01/14 02:37:04;;;;;;;4.95;2.60;;;11.20;66.70;;;;;;6158999;23;20084;-76
2022/01/14 02:39:30;;;;;;;6.68;2.42;;;11.20;66.70;;;;;;6158240;23;20416;-75
2022/01/14 02:41:56;;;;;;;5.30;2.17;;;11.20;66.70;;;;;;6132899;23;20027;-76
2022/01/14 02:44:25;;;;;;;3.30;2.00;;;11.20;66.70;;;;;;6159740;23;20093;-76
2022/01/14 02:46:55;;;;;;;5.72;2.45;;;11.20;66.70;;;;;;6158857;23;20092;-75
2022/01/14 02:49:23;;;;;;;4.15;2.20;;;11.20;66.70;;;;;;6158522;23;20029;-75
2022/01/14 02:51:49;;;;;;;6.22;2.13;;;11.10;66.60;;;;;;6134075;23;20017;-75
2022/01/14 02:54:22;;;;;;;5.28;2.20;;;11.20;66.70;;;;;;6157885;23;20045;-76
2022/01/14 02:56:55;;;;;;;5.37;2.00;;;11.10;66.70;;;;;;6158928;23;20064;-76
2022/01/14 02:59:21;;;;;;;5.80;2.07;;;11.20;66.70;;;;;;6157390;23;20035;-76
2022/01/14 03:01:49;;;;;;;3.40;2.05;;;11.20;66.70;;;;;;6157334;23;20013;-76
2022/01/14 03:04:17;;;;;;;6.43;2.50;;;11.20;66.70;;;;;;6157915;23;20424;-75
2022/01/14 03:06:43;;;;;;;4.97;2.30;;;11.20;66.70;;;;;;6157595;23;20045;-76
2022/01/14 03:09:09;;;;;;;5.10;2.05;;;11.10;66.60;;;;;;6157837;23;20021;-76
2022/01/14 03:11:39;;;;;;;3.00;1.85;;;11.20;66.70;;;;;;6132681;23;20079;-74
2022/01/14 03:14:06;;;;;;;3.45;2.40;;;11.20;66.70;;;;;;6158600;23;20056;-75
2022/01/14 03:16:38;;;;;;;4.85;1.70;;;11.10;66.60;;;;;;6132585;23;20021;-75
2022/01/14 03:19:08;;;;;;;4.80;2.45;;;11.20;66.70;;;;;;6157040;23;20018;-77
2022/01/14 03:21:39;;;;;;;4.05;2.10;;;11.10;66.60;;;;;;6157026;23;20017;-75
2022/01/14 03:24:18;;;;;;;5.00;1.92;;;11.20;66.70;;;;;;6133078;23;20028;-75
2022/01/14 03:26:45;;;;;;;3.97;2.00;;;11.20;66.70;;;;;;6157449;23;20446;-76
2022/01/14 03:29:12;;;;;;;3.90;2.20;;;11.10;66.60;;;;;;6158480;23;20025;-75
2022/01/14 03:31:38;;;;;;;4.10;2.03;;;11.10;66.60;;;;;;6157006;23;20049;-75
2022/01/14 03:34:03;;;;;;;4.35;2.00;;;11.10;66.60;;;;;;6159004;23;20020;-77
2022/01/14 03:36:29;;;;;;;4.78;2.05;;;11.20;66.70;;;;;;6158910;23;20018;-77
2022/01/14 03:38:55;;;;;;;4.10;2.20;;;11.20;66.70;;;;;;6157655;23;20017;-76
2022/01/14 03:41:20;;;;;;;4.22;1.85;;;11.20;66.70;;;;;;6158880;23;20053;-77
2022/01/14 03:43:46;;;;;;;4.43;2.05;;;11.20;66.70;;;;;;6158195;23;20033;-75
2022/01/14 03:46:12;;;;;;;6.25;2.20;;;11.20;66.70;;;;;;6159033;23;20082;-76
2022/01/14 03:48:37;;;;;;;5.38;2.35;;;11.20;66.70;;;;;;6157180;23;20028;-77
2022/01/14 03:51:03;;;;;;;6.88;2.00;;;11.20;66.70;;;;;;6157578;23;20021;-77
2022/01/14 03:53:29;;;;;;;3.88;1.95;;;11.20;66.70;;;;;;6158129;23;20040;-77
2022/01/14 03:55:55;;;;;;;6.68;2.50;;;11.20;66.70;;;;;;6157521;23;20119;-76
2022/01/14 03:58:21;;;;;;;5.82;2.17;;;11.20;66.70;;;;;;6158615;23;20014;-76
2022/01/14 04:00:46;;;;;;;4.57;2.20;;;11.20;66.70;;;;;;6157348;23;20028;-76
2022/01/14 04:03:12;;;;;;;5.38;1.88;;;11.20;66.70;;;;;;6157266;23;20061;-75
2022/01/14 04:05:38;;;;;;;5.13;2.25;;;11.20;66.70;;;;;;6157378;23;20289;-76
2022/01/14 04:08:04;;;;;;;7.10;2.42;;;11.20;66.70;;;;;;6158561;23;20087;-76
2022/01/14 04:10:30;;;;;;;4.85;1.88;;;11.20;66.70;;;;;;6157772;23;20431;-77
2022/01/14 04:15:39;;;;;;;4.82;2.22;;;11.20;66.70;;;;;;6157727;23;20022;-76
2022/01/14 04:18:09;;;;;;;6.18;2.40;;;11.20;66.70;;;;;;6132801;23;20076;-77
2022/01/14 04:20:37;;;;;;;6.15;2.13;;;11.20;66.70;;;;;;6158145;23;20021;-76
2022/01/14 04:23:04;;;;;;;5.10;2.33;;;11.20;66.70;;;;;;6156518;23;20018;-77
2022/01/14 04:25:32;;;;;;;3.88;1.92;;;11.20;66.70;;;;;;6156902;23;20029;-76
2022/01/14 04:27:58;;;;;;;6.00;2.15;;;11.10;66.60;;;;;;6157700;23;20079;-75
2022/01/14 04:30:24;;;;;;;4.95;2.33;;;11.20;66.70;;;;;;6133066;23;20394;-76
2022/01/14 04:32:51;;;;;;;3.90;1.98;;;11.20;66.70;;;;;;6156530;23;20032;-76
2022/01/14 04:35:17;;;;;;;4.68;2.17;;;11.20;66.70;;;;;;6158881;23;20076;-76
2022/01/14 04:37:43;;;;;;;5.13;2.30;;;11.20;66.70;;;;;;6156931;23;20059;-75
2022/01/14 04:40:12;;;;;;;7.65;2.20;;;11.20;66.70;;;;;;6156796;23;20014;-76
2022/01/14 04:42:41;;;;;;;3.20;1.90;;;11.20;66.70;;;;;;6157638;23;20356;-76
2022/01/14 04:45:07;;;;;;;5.85;2.38;;;11.10;66.60;;;;;;6156504;23;20025;-75
2022/01/14 04:47:44;;;;;;;4.97;2.10;;;11.10;66.60;;;;;;6156824;23;20017;-75
2022/01/14 04:50:15;;;;;;;3.58;1.88;;;11.20;66.70;;;;;;6156278;23;20013;-77
2022/01/14 04:52:43;;;;;;;5.18;2.45;;;11.20;66.70;;;;;;6157446;23;20021;-76
2022/01/14 04:55:10;;;;;;;4.72;2.20;;;11.20;66.70;;;;;;6157875;23;20056;-75
2022/01/14 04:57:36;;;;;;;3.75;1.98;;;11.20;66.70;;;;;;6157017;23;20433;-76
2022/01/14 05:00:07;;;;;;;5.90;2.05;;;11.20;66.70;;;;;;6156692;23;20075;-76
2022/01/14 05:02:33;;;;;;;7.38;2.25;;;11.20;66.70;;;;;;6131879;23;20059;-76
2022/01/14 05:04:59;;;;;;;6.53;2.47;;;11.20;66.70;;;;;;6156805;23;20100;-76
2022/01/14 05:07:27;;;;;;;5.80;2.10;;;11.10;66.60;;;;;;6157069;23;20022;-76
2022/01/14 05:10:17;;;;;;;3.13;1.90;;;11.20;66.70;;;;;;6157589;23;20022;-76
2022/01/14 05:12:42;;;;;;;7.22;2.38;;;11.20;66.70;;;;;;6155858;23;20032;-76
2022/01/14 05:15:08;;;;;;;3.95;1.98;;;11.20;66.70;;;;;;6157814;23;20021;-76
2022/01/14 05:17:34;;;;;;;4.07;2.13;;;11.20;66.70;;;;;;6157746;23;20068;-76
2022/01/14 05:20:00;;;;;;;6.10;2.45;;;11.20;66.70;;;;;;6157810;23;20025;-74
2022/01/14 05:22:27;;;;;;;4.50;1.90;;;11.20;66.70;;;;;;6156439;23;20140;-75
2022/01/14 05:24:54;;;;;;;4.13;2.15;;;11.20;66.70;;;;;;6157536;23;20032;-74
2022/01/14 05:27:20;;;;;;;4.82;2.17;;;11.10;66.60;;;;;;6157899;23;20026;-75
2022/01/14 05:29:46;;;;;;;4.07;2.03;;;11.20;66.70;;;;;;6156994;23;20080;-75
2022/01/14 05:32:14;;;;;;;4.50;2.00;;;11.20;66.70;;;;;;6156648;23;20367;-77
2022/01/14 05:34:40;;;;;;;5.13;2.00;;;11.20;66.70;;;;;;6157339;23;20478;-74
2022/01/14 05:37:07;;;;;;;3.25;1.63;;;11.20;66.70;;;;;;6157271;23;20498;-76
2022/01/14 05:39:33;;;;;;;5.28;2.53;;;11.20;66.70;;;;;;6158115;23;20022;-75
2022/01/14 05:42:00;;;;;;;4.88;2.30;;;11.20;66.70;;;;;;6157481;23;20017;-74
2022/01/14 05:44:28;;;;;;;4.88;2.13;;;11.20;66.70;;;;;;6158514;23;20022;-75
2022/01/14 05:46:55;;;;;;;4.90;2.60;;;11.20;66.70;;;;;;6159240;23;20451;-75
2022/01/14 05:49:22;;;;;;;4.38;1.80;;;11.20;66.70;;;;;;6158042;23;20288;-75
2022/01/14 05:51:49;;;;;;;7.07;2.28;;;11.20;66.70;;;;;;6159533;23;20032;-75
2022/01/14 05:54:15;;;;;;;7.28;2.00;;;11.20;66.70;;;;;;6158260;23;20080;-75
2022/01/14 05:56:41;;;;;;;5.10;2.20;;;11.20;66.70;;;;;;6158700;23;20319;-75
2022/01/14 05:59:07;;;;;;;4.25;1.73;;;11.20;66.70;;;;;;6159538;23;20093;-76
2022/01/14 06:01:33;;;;;;;6.15;2.53;;;11.20;66.70;;;;;;6157661;23;20438;-77
2022/01/14 06:04:00;;;;;;;4.70;1.80;;;11.20;66.70;;;;;;6160382;23;20266;-75
2022/01/14 06:06:26;;;;;;;3.15;1.70;;;11.20;66.70;;;;;;6157854;23;20032;-75
2022/01/14 06:08:52;;;;;;;5.10;2.22;;;11.20;66.70;;;;;;6158348;23;20494;-75
2022/01/14 06:11:19;;;;;;;5.40;2.17;;;11.20;66.70;;;;;;6158200;23;20416;-76
2022/01/14 06:13:45;;;;;;;3.83;1.92;;;11.10;66.70;;;;;;6158105;23;20083;-75
2022/01/14 06:16:11;;;;;;;2.70;1.73;;;11.20;66.70;;;;;;6159288;23;20494;-75
2022/01/14 06:18:37;;;;;;;4.10;1.92;;;11.20;66.70;;;;;;6158366;23;20303;-75
2022/01/14 06:21:04;;;;;;;5.45;1.98;;;11.20;66.70;;;;;;6158987;23;20032;-76
2022/01/14 06:23:30;;;;;;;5.70;1.88;;;11.20;66.70;;;;;;6159241;23;20014;-76
2022/01/14 06:25:56;;;;;;;4.30;1.65;;;11.20;66.70;;;;;;6158729;23;20466;-76
2022/01/14 06:28:22;;;;;;;3.22;1.83;;;11.20;66.70;;;;;;6158973;23;20025;-75
2022/01/14 06:30:48;;;;;;;6.80;2.20;;;11.10;66.70;;;;;;6159231;23;20375;-75
2022/01/14 06:33:14;;;;;;;5.13;1.95;;;11.20;66.70;;;;;;6159817;23;20044;-76
2022/01/14 06:35:40;;;;;;;4.97;1.90;;;11.20;66.70;;;;;;6157532;23;20148;-75
2022/01/14 06:38:05;;;;;;;4.07;1.90;;;11.20;66.70;;;;;;6159341;23;20060;-76
2022/01/14 06:40:32;;;;;;;6.43;1.88;;;11.20;66.70;;;;;;6157901;23;20029;-75
2022/01/14 06:42:58;;;;;;;6.45;1.90;;;11.20;66.70;;;;;;6157875;23;20017;-75
2022/01/14 06:45:24;;;;;;;4.03;2.10;;;11.20;66.70;;;;;;6159228;23;20056;-76
2022/01/14 06:47:51;;;;;;;5.80;2.15;;;11.20;66.70;;;;;;6158975;23;20154;-77
2022/01/14 06:50:17;;;;;;;3.58;1.75;;;11.20;66.70;;;;;;6157755;23;20064;-75
2022/01/14 06:52:43;;;;;;;5.43;2.30;;;11.20;66.70;;;;;;6157932;23;20041;-76
2022/01/14 06:55:09;;;;;;;7.57;1.98;;;11.20;67.30;;;;;;6157252;23;20017;-77
2022/01/14 06:57:38;;;;;;;4.03;1.70;;;11.20;66.70;;;;;;6158836;23;20092;-75
2022/01/14 07:00:09;;;;;;;3.00;1.60;;;11.20;66.70;;;;;;6157725;23;20049;-75
2022/01/14 07:02:34;;;;;;;3.65;2.00;;;11.20;66.70;;;;;;6158024;23;20017;-77
2022/01/14 07:05:00;;;;;;;4.97;1.52;;;11.20;66.70;;;;;;6159509;23;20026;-76
2022/01/14 07:07:26;;;;;;;5.20;2.22;;;11.20;66.70;;;;;;6157335;23;20289;-77
2022/01/14 07:09:58;;;;;;;3.63;1.88;;;11.20;66.70;;;;;;6157713;23;20064;-77
2022/01/14 07:12:28;;;;;;;3.55;1.50;;;11.20;66.70;;;;;;6158631;23;20076;-76
2022/01/14 07:14:54;;;;;;;3.78;1.42;;;11.20;66.70;;;;;;6159554;23;20021;-75
2022/01/14 07:17:24;;;;;;;2.97;1.40;;;11.20;66.80;;;;;;6157853;23;20494;-76
2022/01/14 07:19:53;;;;;;;3.28;1.73;;;11.20;66.80;;;;;;6157598;23;20013;-77
2022/01/14 07:22:20;;;;;;;2.95;1.40;;;11.20;66.70;;;;;;6158665;23;20021;-76
2022/01/14 07:24:46;;;;;;;3.00;1.38;;;11.20;66.80;;;;;;6157424;23;20289;-76
2022/01/14 07:27:13;;;;;;;5.75;1.70;;;11.20;66.70;;;;;;6159185;23;20014;-77
2022/01/14 07:29:38;;;;;;;3.67;1.38;;;11.20;66.80;;;;;;6158187;23;20024;-76
2022/01/14 07:32:05;;;;;;;3.00;1.50;;;11.20;66.80;;;;;;6156990;23;20018;-77
2022/01/14 07:34:31;;;;;;;3.17;1.40;;;11.20;66.80;;;;;;6158314;23;20111;-76
2022/01/14 07:36:56;;;;;;;4.28;1.45;;;11.20;66.80;;;;;;6158058;23;20025;-76
2022/01/14 07:39:23;;;;;;;5.00;1.70;;;11.20;66.80;;;;;;6158788;23;20033;-75
2022/01/14 07:41:53;;;;;;;3.03;1.33;;;11.20;67.40;;;;;;6133802;23;20018;-76
2022/01/14 07:44:20;;;;;;;3.30;1.25;;;11.20;66.80;;;;;;6158516;23;20078;-75
2022/01/14 07:46:47;;;;;;;3.20;1.23;;;11.20;67.40;;;;;;6158415;23;20013;-75
2022/01/14 07:49:13;;;;;;;3.00;1.25;;;11.20;66.80;;;;;;6132405;23;20029;-75
2022/01/14 07:51:39;;;;;;;2.95;1.42;;;11.20;66.80;;;;;;6158675;23;20076;-76
2022/01/14 07:54:05;;;;;;;2.53;1.60;;;11.20;66.80;;;;;;6156755;23;20014;-75
2022/01/14 07:56:52;;;;;;;2.28;1.27;;;11.20;66.80;;;;;;6159037;23;20017;-76
2022/01/14 07:59:23;;;;;;;4.47;1.60;;;11.20;66.80;;;;;;6158875;23;20032;-76
2022/01/14 08:01:51;;;;;;;4.50;1.50;;;11.20;66.80;;;;;;6157320;23;20323;-76
2022/01/14 08:04:18;;;;;;;2.78;1.00;;;11.20;66.80;;;;;;6158427;23;20018;-76
2022/01/14 08:06:50;;;;;;;3.20;1.48;;;11.20;66.80;;;;;;6156810;23;20318;-75
2022/01/14 08:09:17;;;;;;;5.63;1.83;;;11.20;66.80;;;;;;6158293;23;20033;-75
2022/01/14 08:11:44;;;;;;;4.35;1.25;;;11.20;66.80;;;;;;6158782;23;20049;-76
2022/01/14 08:14:10;;;;;;;4.50;1.58;;;11.20;66.80;;;;;;6156538;23;20018;-76
2022/01/14 08:16:36;;;;;;;4.38;1.77;;;11.20;66.90;;;;;;6157863;23;20096;-75
2022/01/14 08:19:02;;;;;;;3.13;1.13;;;11.20;66.90;;;;;;6131893;23;20053;-76
2022/01/14 08:21:28;;;;;;;3.13;1.00;;;11.20;66.90;;;;;;6157330;23;20293;-76
2022/01/14 08:23:54;;;;;;;3.15;1.30;;;11.20;66.80;;;;;;6157631;23;20053;-75
2022/01/14 08:26:19;;;;;;;2.35;0.88;;;11.20;66.80;;;;;;6132976;23;20017;-75
2022/01/14 08:28:45;;;;;;;3.38;1.08;;;11.20;66.80;;;;;;6157144;23;20031;-76
2022/01/14 08:31:11;;;;;;;3.35;1.50;;;11.20;66.80;;;;;;6156926;23;20108;-74
2022/01/14 08:33:37;;;;;;;3.03;1.30;;;11.20;66.80;;;;;;6132218;23;20029;-74
2022/01/14 08:36:03;;;;;;;1.98;0.90;;;11.20;66.80;;;;;;6156528;23;20018;-77
2022/01/14 08:38:28;;;;;;;3.38;1.42;;;11.20;66.80;;;;;;6157374;23;20013;-76
2022/01/14 08:40:55;;;;;;;3.25;1.10;;;11.20;66.80;;;;;;6156528;23;20081;-77
2022/01/14 08:43:21;;;;;;;3.47;1.10;;;11.20;66.90;;;;;;6157737;23;20056;-76
2022/01/14 08:45:46;;;;;;;4.82;1.00;;;11.20;66.80;;;;;;6158266;23;20028;-75
2022/01/14 08:48:13;;;;;;;4.20;1.35;;;11.20;66.80;;;;;;6157609;23;20028;-76
2022/01/14 08:50:39;;;;;;;3.08;1.30;;;11.20;66.80;;;;;;6156922;23;20021;-75
2022/01/14 08:53:07;;;;;;;3.03;1.30;;;11.20;66.80;;;;;;6156715;23;20029;-75
2022/01/14 08:55:34;;;;;;;2.05;0.90;;;11.20;66.80;;;;;;6156713;23;20022;-77
2022/01/14 08:58:00;;;;;;;3.70;0.90;;;11.20;66.80;;;;;;6157155;23;20173;-76
2022/01/14 09:00:26;;;;;;;3.15;1.00;;;11.20;66.90;;;;;;6157052;23;20022;-74
2022/01/14 09:02:52;;;;;;;3.70;1.30;;;11.20;66.90;;;;;;6157873;23;20084;-76
2022/01/14 09:05:19;;;;;;;5.35;1.25;;;11.20;66.90;;;;;;6157911;23;20028;-77
2022/01/14 09:07:45;;;;;;;2.10;0.95;;;11.20;66.90;;;;;;6156981;23;20056;-75
2022/01/14 09:10:52;;;;;;;2.30;1.02;;;11.20;66.90;;;;;;6132541;23;20029;-77
2022/01/14 09:13:18;;;;;;;3.58;1.27;;;11.20;66.90;;;;;;6110127;23;20026;-75
2022/01/14 09:15:45;;;;;;;4.13;1.23;;;11.20;66.90;;;;;;6131631;23;20057;-75
2022/01/14 09:18:10;;;;;;;3.25;1.05;;;11.20;66.90;;;;;;6159821;23;20038;-75
2022/01/14 09:20:36;;;;;;;2.53;0.75;;;11.20;66.90;;;;;;6159132;23;20500;-76
2022/01/14 09:23:03;;;;;;;2.53;0.80;;;11.20;66.90;;;;;;6159958;23;20020;-76
2022/01/14 09:25:29;;;;;;;2.50;0.90;;;11.20;66.90;;;;;;6160030;23;20040;-76
2022/01/14 09:27:54;;;;;;;2.53;0.90;;;11.20;66.90;;;;;;6158510;23;20462;-75
2022/01/14 09:30:22;;;;;;;2.05;0.88;;;11.20;66.90;;;;;;6160011;23;20029;-74
2022/01/14 09:32:48;;;;;;;2.90;0.90;;;11.20;66.90;;;;;;6159766;23;20018;-76
2022/01/14 09:35:15;;;;;;;3.15;1.23;;;11.20;66.90;;;;;;6158868;23;20026;-74
2022/01/14 09:37:44;;;;;;;2.05;0.73;;;11.20;66.90;;;;;;6160379;23;20364;-78
2022/01/14 09:40:12;;;;;;;3.58;1.25;;;11.20;66.90;;;;;;6133934;23;20028;-75
2022/01/14 09:42:38;;;;;;;2.88;1.23;;;11.20;66.90;;;;;;6159543;23;20037;-75
2022/01/14 09:45:05;;;;;;;2.78;0.80;;;11.20;66.90;;;;;;6160144;23;20404;-76
2022/01/14 09:47:30;;;;;;;2.40;0.98;;;11.20;66.90;;;;;;6133492;23;20030;-74
2022/01/14 09:49:56;;;;;;;2.05;0.73;;;11.20;67.00;;;;;;6159634;23;20080;-75
2022/01/14 09:52:22;;;;;;;3.92;0.90;;;11.20;66.90;;;;;;6157835;23;20025;-75
2022/01/14 09:54:50;;;;;;;2.55;1.02;;;11.20;67.00;;;;;;6159525;23;20021;-76
2022/01/14 09:57:18;;;;;;;2.72;0.70;;;11.20;67.00;;;;;;6158416;23;20025;-76
2022/01/14 09:59:44;;;;;;;3.88;0.70;;;11.20;67.00;;;;;;6159042;23;20423;-75
2022/01/14 10:02:35;;;;;;;1.38;0.77;;;11.20;67.00;;;;;;6159738;23;20025;-75
2022/01/14 10:05:02;;;;;;;4.40;1.13;;;11.20;67.00;;;;;;6158191;23;20025;-75
2022/01/14 10:07:29;;;;;;;3.08;0.90;;;11.20;67.00;;;;;;6158506;23;20013;-76
2022/01/14 10:09:58;;;;;;;4.32;1.00;;;11.20;67.00;;;;;;6158988;23;20013;-76
2022/01/14 10:12:24;;;;;;;3.55;0.70;;;11.20;67.00;;;;;;6157826;23;20029;-75
2022/01/14 10:14:57;;;;;;;2.20;0.80;;;11.20;67.00;;;;;;6133633;23;20092;-74
2022/01/14 10:17:25;;;;;;;2.50;0.90;;;11.30;67.10;;;;;;6158489;23;20025;-76
2022/01/14 10:19:51;;;;;;;3.67;0.80;;;11.20;67.00;;;;;;6158132;23;20080;-75
2022/01/14 10:22:28;;;;;;;2.83;0.93;;;11.30;67.10;;;;;;6159227;23;20017;-76
2022/01/14 10:25:07;;;;;;;2.13;0.80;;;11.20;67.00;;;;;;6159143;23;20024;-75
2022/01/14 10:27:45;;;;;;;2.03;0.70;;;11.20;67.10;;;;;;6158115;23;20021;-75
2022/01/14 10:30:24;;;;;;;4.45;0.85;;;11.20;67.10;;;;;;6157560;23;20021;-76
2022/01/14 10:32:57;;;;;;;2.67;0.95;;;11.30;67.10;;;;;;6158034;23;20049;-74
2022/01/14 10:35:25;;;;;;;1.47;0.43;;;11.20;67.20;;;;;;6158573;23;20025;-76
2022/01/14 10:37:55;;;;;;;3.15;0.90;;;11.20;67.10;;;;;;6157694;23;20241;-75
2022/01/14 10:40:23;;;;;;;1.75;0.85;;;11.20;67.20;;;;;;6159240;23;20025;-76
2022/01/14 10:42:51;;;;;;;2.55;0.80;;;11.20;67.80;;;;;;6157568;23;20088;-75
2022/01/14 10:45:21;;;;;;;3.83;0.82;;;11.20;67.20;;;;;;6159005;23;20092;-74
2022/01/14 10:48:05;;;;;;;2.35;1.17;;;11.20;67.20;;;;;;6159074;23;20025;-77
2022/01/14 10:50:46;;;;;;;2.83;0.98;;;11.30;67.20;;;;;;6158913;23;20033;-76
2022/01/14 10:53:15;;;;;;;3.72;1.23;;;11.30;67.20;;;;;;6157901;23;20018;-76
2022/01/14 10:55:59;;;;;;;2.63;0.80;;;11.20;67.20;;;;;;6158685;23;20017;-75
2022/01/14 10:58:28;;;;;;;2.05;0.90;;;11.30;67.20;;;;;;6158430;23;20036;-75
2022/01/14 11:00:59;;;;;;;2.60;0.98;;;11.30;67.20;;;;;;6157350;23;20100;-74
2022/01/14 11:03:46;;;;;;;2.42;0.82;;;11.30;67.30;;;;;;6159150;23;20032;-75
2022/01/14 11:06:32;;;;;;;2.72;1.05;;;11.30;67.20;;;;;;6159803;23;20331;-75
2022/01/14 11:09:05;;;;;;;3.50;0.88;;;11.30;67.20;;;;;;6158097;23;20151;-76
2022/01/14 11:11:33;;;;;;;2.67;0.90;;;11.20;67.20;;;;;;6158489;23;20449;-76
2022/01/14 11:13:59;;;;;;;1.70;0.60;;;11.20;67.20;;;;;;6158920;23;20096;-76
2022/01/14 11:16:26;;;;;;;2.00;0.70;;;11.20;67.20;;;;;;6157512;23;20014;-74
2022/01/14 11:18:53;;;;;;;2.47;1.00;;;11.20;67.20;;;;;;6157536;23;20052;-76
2022/01/14 11:24:04;;;;;;;2.28;0.52;;;11.30;67.20;;;;;;6157782;23;20374;-74
2022/01/14 11:26:36;;;;;;;3.30;0.70;;;11.20;67.20;;;;;;6158626;23;20021;-76
2022/01/14 11:29:07;;;;;;;2.15;0.88;;;11.30;67.20;;;;;;6132788;23;20021;-77
2022/01/14 11:31:36;;;;;;;2.50;0.77;;;11.30;67.20;;;;;;6132536;23;20032;-74
2022/01/14 11:34:05;;;;;;;2.88;1.10;;;11.30;67.20;;;;;;6157458;23;20404;-75
2022/01/14 11:36:54;;;;;;;2.53;0.70;;;11.30;67.20;;;;;;6158544;23;20025;-76
2022/01/14 11:39:22;;;;;;;3.53;1.10;;;11.30;67.20;;;;;;6158436;23;20021;-77
2022/01/14 11:42:00;;;;;;;2.28;0.60;;;11.30;67.20;;;;;;6157256;23;20017;-76
2022/01/14 11:44:43;;;;;;;2.13;0.90;;;11.30;67.30;;;;;;6158109;23;20021;-75
2022/01/14 11:47:28;;;;;;;3.70;0.90;;;11.30;67.30;;;;;;6159153;23;20021;-74
2022/01/14 11:49:58;;;;;;;2.40;0.68;;;11.30;67.30;;;;;;6157041;23;20053;-76
2022/01/14 11:52:42;;;;;;;4.53;0.95;;;11.30;67.30;;;;;;6158302;23;20036;-74
2022/01/14 11:55:29;;;;;;;2.90;0.75;;;11.30;67.30;;;;;;6158500;23;20022;-76
2022/01/14 11:57:56;;;;;;;2.33;0.70;;;11.30;67.30;;;;;;6138535;23;20363;-74
2022/01/14 12:00:25;;;;;;;2.30;0.77;;;11.30;67.30;;;;;;6157191;23;20056;-74
2022/01/14 12:02:56;;;;;;;1.92;0.88;;;11.30;67.30;;;;;;6158764;23;20026;-75
2022/01/14 12:05:29;;;;;;;2.22;0.75;;;11.30;67.30;;;;;;6158166;23;20022;-75
2022/01/14 12:08:04;;;;;;;2.20;0.77;;;11.30;67.30;;;;;;6157218;23;20033;-74
2022/01/14 12:10:29;;;;;;;3.17;0.85;;;11.30;67.30;;;;;;6157422;23;20021;-74
2022/01/14 12:16:05;;;;;;;1.58;0.60;;;11.30;67.30;;;;;;6157279;23;20025;-75
2022/01/14 12:18:58;;;;;;;3.58;0.90;;;11.30;67.30;;;;;;6133042;23;20053;-75
2022/01/14 12:21:51;;;;;;;6.47;0.70;;;11.30;67.30;;;;;;6157216;23;20419;-74
2022/01/14 12:24:27;;;;;;;1.02;0.50;;;11.30;67.30;;;;;;6158518;23;20045;-75
2022/01/14 12:26:55;;;;;;;5.57;1.15;;;11.30;67.30;;;;;;6158347;23;20021;-76
2022/01/14 12:29:38;;;;;;;1.77;0.82;;;11.30;67.30;;;;;;6132315;23;20403;-74
2022/01/14 12:32:05;;;;;;;1.92;0.80;;;11.30;67.30;;;;;;6157211;23;20022;-74
2022/01/14 12:34:32;;;;;;;2.45;0.70;;;11.30;67.30;;;;;;6157034;23;20029;-76
2022/01/14 12:36:58;;;;;;;1.85;0.70;;;11.30;67.30;;;;;;6157336;23;20442;-75
2022/01/14 12:39:24;;;;;;;2.33;0.93;;;11.30;67.30;;;;;;6157074;23;20014;-74
2022/01/14 12:41:54;;;;;;;2.17;0.80;;;11.30;67.30;;;;;;6157261;23;20327;-75
2022/01/14 12:44:24;;;;;;;1.70;0.60;;;11.30;67.40;;;;;;6158700;23;20057;-75
2022/01/14 12:47:05;;;;;;;3.72;1.05;;;11.30;67.40;;;;;;6156639;23;20025;-77
2022/01/14 12:49:40;;;;;;;3.28;0.93;;;11.30;67.40;;;;;;6158350;23;20096;-75
2022/01/14 12:52:10;;;;;;;3.10;0.60;;;11.30;67.40;;;;;;6156212;23;20022;-75
2022/01/14 12:54:38;;;;;;;2.08;0.60;;;11.30;67.40;;;;;;6157767;23;20013;-74
2022/01/14 12:57:04;;;;;;;4.45;1.05;;;11.30;67.40;;;;;;6157730;23;20028;-76
2022/01/14 12:59:41;;;;;;;1.95;0.73;;;11.30;67.40;;;;;;6157487;23;20025;-75
2022/01/14 13:02:07;;;;;;;2.05;0.70;;;11.30;67.40;;;;;;6158559;23;20151;-75
2022/01/14 13:04:33;;;;;;;3.22;0.90;;;11.30;68.00;;;;;;6156940;23;20412;-76
2022/01/14 13:07:02;;;;;;;5.30;1.33;;;11.30;67.40;;;;;;6156965;23;20017;-77
2022/01/14 13:09:30;;;;;;;1.65;0.70;;;11.30;67.40;;;;;;6157543;23;20027;-77
2022/01/14 13:11:58;;;;;;;4.60;1.20;;;11.30;67.40;;;;;;6157775;23;20021;-77
2022/01/14 13:14:28;;;;;;;3.05;0.88;;;11.30;67.40;;;;;;6156171;23;20036;-76
2022/01/14 13:16:54;;;;;;;2.75;0.90;;;11.30;67.40;;;;;;6156336;23;20029;-76
2022/01/14 13:19:31;;;;;;;3.38;0.80;;;11.30;67.40;;;;;;6156747;23;20364;-75
2022/01/14 13:22:03;;;;;;;3.33;0.73;;;11.30;67.40;;;;;;6157048;23;20029;-77